Date,TemperatureHighF,TemperatureAvgF,TemperatureLowF,DewpointHighF,DewpointAvgF,DewpointLowF,HumidityHigh,HumidityAvg,HumidityLow,PressureMaxIn,PressureMinIn,WindSpeedMaxMPH,WindSpeedAvgMPH,GustSpeedMaxMPH,PrecipitationSumIn
2013-2-1,59,45,36,47,42,35,98,90,64,0.00,40.00,4,3,7,0.01
2013-2-2,56,46,40,46,42,37,96,86,62,0.00,40.00,4,2,8,0.01
2013-2-3,51,46,42,44,43,41,97,89,76,0.00,40.00,3,2,4,0.01
2013-2-4,48,43,38,45,41,37,98,92,83,0.00,40.00,6,3,12,0.00
2013-2-5,50,46,44,47,44,39,96,89,80,0.00,40.00,7,4,12,0.25
2013-2-6,50,45,38,45,41,36,96,87,69,0.00,40.00,9,5,15,0.53
2013-2-7,40,37,35,38,36,34,97,96,94,0.00,40.00,4,2,9,1.08
2013-2-8,47,39,33,39,36,32,98,90,69,0.00,40.00,4,2,11,0.01
2013-2-9,51,41,35,41,37,34,97,87,59,0.00,40.00,4,2,7,0.01
2013-2-10,47,44,40,41,39,37,98,86,71,0.00,40.00,4,3,8,0.00
2013-2-11,52,44,40,43,38,34,97,79,56,0.00,40.00,5,3,9,0.01
2013-2-12,53,46,43,50,45,42,98,96,86,0.00,40.00,3,2,5,0.11
2013-2-13,54,47,44,48,45,43,98,93,78,0.00,40.00,4,2,6,0.01
2013-2-14,56,46,39,47,44,38,98,91,69,0.00,40.00,6,3,10,0.01
2013-2-15,67,49,42,48,42,39,97,81,39,0.00,40.00,4,3,7,0.00
2013-2-16,51,46,42,45,43,41,97,90,69,0.00,40.00,4,2,7,0.05
2013-2-17,49,42,37,41,37,35,97,86,63,0.00,40.00,5,3,9,0.04
2013-2-18,47,39,34,39,36,33,96,89,69,0.00,40.00,6,3,10,0.04
2013-2-19,49,39,34,40,36,33,97,90,72,0.00,40.00,6,2,11,0.64
2013-2-20,47,41,36,42,39,35,97,92,73,0.00,40.00,4,2,7,0.29
2013-2-21,47,42,37,42,39,36,97,89,77,0.00,40.00,4,3,7,0.25
2013-2-22,47,44,40,44,42,38,97,92,85,0.00,40.00,9,5,18,0.43
2013-2-23,49,41,37,42,36,34,96,85,61,0.00,40.00,5,2,9,0.34
2013-2-24,54,41,32,42,35,31,97,84,44,0.00,40.00,5,3,9,0.01
2013-2-25,47,43,36,44,39,35,97,86,74,0.00,40.00,7,3,13,0.46
2013-2-26,51,38,31,39,34,30,96,86,49,0.00,40.00,3,2,5,0.06
2013-2-27,54,46,40,49,42,37,96,85,60,0.00,40.00,7,3,12,0.21
2013-2-28,51,50,50,50,49,48,98,96,93,0.00,40.00,7,5,14,0.46